createdAt,value
2018-02-06T00:00:03.823Z,99086.45
2018-02-06T00:02:32.368Z,99048.84
2018-02-06T00:05:00.604Z,99089.08
2018-02-06T00:07:28.899Z,99085.17
2018-02-06T00:09:57.176Z,99091.38
2018-02-06T00:12:25.458Z,99090.14
2018-02-06T00:14:53.731Z,99095.69
2018-02-06T00:17:22.024Z,99091.77
2018-02-06T00:19:50.283Z,99081.97
2018-02-06T00:22:18.582Z,99082.66
2018-02-06T00:24:46.841Z,99075.05
2018-02-06T00:27:15.175Z,99073.27
2018-02-06T00:29:44.008Z,99068.66
2018-02-06T00:32:12.300Z,99069.23
2018-02-06T00:34:40.653Z,99057.30
2018-02-06T00:37:08.930Z,99042.69
2018-02-06T00:39:37.213Z,99035.67
2018-02-06T00:42:05.496Z,99028.47
2018-02-06T00:44:33.789Z,99011.36
2018-02-06T00:47:02.145Z,98997.93
2018-02-06T00:49:30.429Z,98994.64
2018-02-06T00:51:58.741Z,98988.85
2018-02-06T00:54:27.039Z,98986.36
2018-02-06T00:56:55.360Z,98996.47
2018-02-06T00:59:23.623Z,99001.40
2018-02-06T01:01:51.943Z,98998.58
2018-02-06T01:04:20.203Z,99008.09
2018-02-06T01:06:48.526Z,99012.59
2018-02-06T01:09:16.803Z,99001.87
2018-02-06T01:11:45.123Z,99001.38
2018-02-06T01:14:13.386Z,99002.19
2018-02-06T01:16:41.683Z,98999.28
2018-02-06T01:19:09.979Z,98994.37
2018-02-06T01:21:38.230Z,98989.73
2018-02-06T01:24:06.556Z,98983.82
2018-02-06T01:26:34.831Z,98971.26
2018-02-06T01:29:03.139Z,98970.98
2018-02-06T01:31:31.412Z,98974.79
2018-02-06T01:33:59.702Z,98963.87
2018-02-06T01:36:27.987Z,98959.66
2018-02-06T01:38:56.269Z,98943.66
2018-02-06T01:41:24.539Z,98951.77
2018-02-06T01:43:52.865Z,98943.01
2018-02-06T01:46:21.169Z,98945.30
2018-02-06T01:48:49.470Z,98945.39
2018-02-06T01:51:17.747Z,98942.77
2018-02-06T01:53:46.019Z,98940.55
2018-02-06T01:56:14.349Z,98935.52
2018-02-06T01:58:42.616Z,98925.83
2018-02-06T02:01:10.907Z,98926.47
2018-02-06T02:03:39.192Z,98921.02
2018-02-06T02:06:07.918Z,98918.60
2018-02-06T02:08:36.191Z,98913.88
2018-02-06T02:11:05.436Z,98911.73
2018-02-06T02:13:33.761Z,98906.52
2018-02-06T02:16:02.023Z,98898.56
2018-02-06T02:18:30.323Z,98899.68
2018-02-06T02:20:58.643Z,98891.41
2018-02-06T02:23:26.953Z,98878.88
2018-02-06T02:25:55.251Z,98880.16
2018-02-06T02:28:23.542Z,98875.02
2018-02-06T02:30:51.877Z,98874.22
2018-02-06T02:33:21.436Z,98882.83
2018-02-06T02:35:49.720Z,98881.48
2018-02-06T02:38:18.023Z,98906.38
2018-02-06T02:40:46.324Z,98869.39
2018-02-06T04:39:28.351Z,98745.08
2018-02-06T04:41:57.305Z,98745.97
2018-02-06T04:44:25.583Z,98749.16
2018-02-06T04:46:54.164Z,98747.99
2018-02-06T04:49:22.422Z,98757.78
2018-02-06T04:51:50.723Z,98760.16
2018-02-06T04:54:19.037Z,98754.55
2018-02-06T04:56:47.379Z,98749.25
2018-02-06T04:59:15.658Z,98749.42
2018-02-06T05:01:43.919Z,98745.20
2018-02-06T05:04:12.229Z,98748.60
2018-02-06T05:06:40.550Z,98736.16
2018-02-06T05:09:08.864Z,98734.58
2018-02-06T05:11:37.143Z,98731.45
2018-02-06T05:14:05.448Z,98727.72
2018-02-06T05:16:33.751Z,98727.81
2018-02-06T05:19:02.089Z,98726.70
2018-02-06T05:21:30.459Z,98719.33
2018-02-06T05:23:58.744Z,98720.14
2018-02-06T05:26:27.020Z,98720.34
2018-02-06T05:28:55.336Z,98724.66
2018-02-06T05:31:23.647Z,98721.01
2018-02-06T05:33:51.913Z,98713.11
2018-02-06T05:36:20.241Z,98708.78
2018-02-06T05:38:48.517Z,98711.20
2018-02-06T05:41:16.828Z,98708.96
2018-02-06T05:43:45.096Z,98710.03
2018-02-06T05:46:13.603Z,98696.53
2018-02-06T05:48:41.886Z,98698.18
2018-02-06T05:51:10.155Z,98686.39
2018-02-06T05:53:38.483Z,98684.61
2018-02-06T05:56:06.837Z,98677.14
2018-02-06T05:58:35.150Z,98680.47
2018-02-06T06:01:03.433Z,98675.73
2018-02-06T06:03:31.722Z,98669.69
2018-02-06T06:06:00.001Z,98666.19
2018-02-06T06:08:28.331Z,98671.72
2018-02-06T06:10:56.602Z,98673.83
2018-02-06T06:13:24.913Z,98678.66
2018-02-06T06:15:53.192Z,98681.78
2018-02-06T06:18:21.475Z,98667.23
2018-02-06T06:20:49.792Z,98665.67
2018-02-06T06:23:18.066Z,98664.90
2018-02-06T06:25:46.362Z,98663.83
2018-02-06T06:28:14.646Z,98659.02
2018-02-06T06:30:42.961Z,98660.52
2018-02-06T06:33:11.241Z,98654.50
2018-02-06T06:35:39.566Z,98659.53
2018-02-06T06:38:07.846Z,98654.25
2018-02-06T06:40:36.195Z,98655.47
2018-02-06T06:43:05.222Z,98655.78
2018-02-06T06:45:33.533Z,98651.68
2018-02-06T06:48:01.817Z,98653.58
2018-02-06T06:50:30.110Z,98652.78
2018-02-06T06:52:58.387Z,98657.17
2018-02-06T06:55:26.728Z,98649.58
2018-02-06T06:57:55.146Z,98649.91
2018-02-06T07:00:23.485Z,98649.04
2018-02-06T07:02:51.930Z,98645.80
2018-02-06T07:05:20.269Z,98644.77
2018-02-06T07:07:48.670Z,98645.84
2018-02-06T07:10:16.971Z,98635.73
2018-02-06T07:12:45.248Z,98652.84
2018-02-06T07:15:13.588Z,98660.69
2018-02-06T07:17:41.970Z,98658.11
2018-02-06T07:20:10.241Z,98655.84
2018-02-06T07:22:38.518Z,98652.69
2018-02-06T07:25:06.982Z,98657.51
2018-02-06T07:27:35.355Z,98654.25
2018-02-06T07:30:03.643Z,98657.90
2018-02-06T07:32:32.022Z,98659.64
2018-02-06T07:35:00.293Z,98657.57
2018-02-06T07:37:28.566Z,98651.23
2018-02-06T07:39:56.847Z,98637.47
2018-02-06T07:42:25.155Z,98649.77
2018-02-06T07:44:53.415Z,98646.03
2018-02-06T07:47:21.758Z,98643.08
2018-02-06T07:49:50.048Z,98645.86
2018-02-06T07:52:18.355Z,98644.90
2018-02-06T07:54:46.629Z,98639.19
2018-02-06T07:57:14.898Z,98647.99
2018-02-06T07:59:43.896Z,98644.98
2018-02-06T08:02:12.188Z,98647.86
2018-02-06T08:04:40.503Z,98646.36
2018-02-06T08:07:08.802Z,98648.16
2018-02-06T08:09:37.102Z,98655.56
2018-02-06T08:12:05.373Z,98649.47
2018-02-06T08:14:33.644Z,98644.16
2018-02-06T08:17:02.004Z,98638.34
2018-02-06T08:19:30.294Z,98640.46
2018-02-06T08:21:58.648Z,98637.70
2018-02-06T08:24:26.960Z,98622.99
2018-02-06T08:26:55.299Z,98633.66
2018-02-06T08:29:23.603Z,98634.72
2018-02-06T08:31:51.879Z,98626.83
2018-02-06T08:36:54.602Z,98627.46
2018-02-06T08:39:22.961Z,98629.98
2018-02-06T08:41:51.243Z,98631.20
2018-02-06T08:44:19.549Z,98626.41
2018-02-06T08:46:48.079Z,98618.73
2018-02-06T08:49:17.087Z,98617.47
2018-02-06T08:51:45.386Z,98619.08
2018-02-06T08:54:13.708Z,98618.16
2018-02-06T08:56:42.039Z,98617.84
2018-02-06T08:59:10.300Z,98617.75
2018-02-06T09:01:39.401Z,98612.87
2018-02-06T09:04:07.710Z,98619.20
2018-02-06T09:06:36.555Z,98622.09
2018-02-06T09:09:04.927Z,98617.89
2018-02-06T09:11:33.949Z,98611.91
2018-02-06T09:14:02.247Z,98611.97
2018-02-06T09:16:30.556Z,98604.08
2018-02-06T09:18:58.844Z,98586.04
2018-02-06T09:21:27.136Z,98586.95
2018-02-06T09:23:55.447Z,98604.83
2018-02-06T09:26:23.724Z,98603.69
2018-02-06T09:28:52.088Z,98600.52
2018-02-06T09:31:20.348Z,98592.01
2018-02-06T09:33:48.655Z,98596.79
2018-02-06T09:36:17.093Z,98581.30
2018-02-06T09:38:45.366Z,98589.52
2018-02-06T09:41:13.684Z,98591.87
2018-02-06T09:43:42.647Z,98587.25
2018-02-06T09:46:10.987Z,98584.94
2018-02-06T09:48:39.364Z,98587.88
2018-02-06T09:51:07.687Z,98582.66
2018-02-06T09:53:36.594Z,98581.48
2018-02-06T09:56:05.102Z,98583.81
2018-02-06T09:58:33.443Z,98580.59
2018-02-06T10:01:01.743Z,98574.78
2018-02-06T10:03:30.142Z,98576.82
2018-02-06T10:05:58.451Z,98572.04
2018-02-06T10:08:26.740Z,98566.95
2018-02-06T10:10:55.015Z,98561.25
2018-02-06T10:13:23.354Z,98565.03
2018-02-06T10:15:51.958Z,98567.48
2018-02-06T10:18:20.334Z,98566.80
2018-02-06T10:20:48.667Z,98546.88
2018-02-06T10:23:16.930Z,98560.89
2018-02-06T10:25:45.247Z,98560.10
2018-02-06T10:28:13.532Z,98543.05
2018-02-06T10:30:41.832Z,98544.97
2018-02-06T10:33:10.113Z,98544.91
2018-02-06T10:35:38.469Z,98543.27
2018-02-06T10:38:07.298Z,98530.63
2018-02-06T10:40:35.556Z,98548.89
2018-02-06T10:43:04.748Z,98561.20
2018-02-06T10:45:33.684Z,98546.48
2018-02-06T10:48:01.986Z,98539.70
2018-02-06T10:50:30.262Z,98532.33
2018-02-06T10:52:59.524Z,98534.62
2018-02-06T10:55:28.123Z,98522.36
2018-02-06T10:57:56.436Z,98515.92
2018-02-06T11:00:24.729Z,98510.03
2018-02-06T11:02:56.692Z,98501.14
2018-02-06T11:05:26.940Z,98504.91
2018-02-06T11:07:55.264Z,98504.87
2018-02-06T11:10:24.128Z,98497.31
2018-02-06T11:12:52.460Z,98490.61
2018-02-06T11:15:20.820Z,98488.21
2018-02-06T11:17:49.104Z,98485.13
2018-02-06T11:20:17.385Z,98482.12
2018-02-06T11:22:45.679Z,98479.34
2018-02-06T11:25:14.031Z,98482.70
2018-02-06T11:27:42.299Z,98474.90
2018-02-06T11:30:10.596Z,98478.01
2018-02-06T11:32:38.919Z,98480.38
2018-02-06T11:35:07.294Z,98475.66
2018-02-06T11:37:35.571Z,98470.42
2018-02-06T11:40:03.871Z,98446.25
2018-02-06T11:42:32.306Z,98464.95
2018-02-06T11:45:00.609Z,98470.69
2018-02-06T11:47:28.935Z,98474.14
2018-02-06T11:49:57.212Z,98467.68
2018-02-06T11:52:25.513Z,98464.44
2018-02-06T11:54:53.774Z,98460.30
2018-02-06T11:57:22.148Z,98459.39
2018-02-06T11:59:50.447Z,98456.16
2018-02-06T12:02:18.783Z,98455.42
2018-02-06T12:04:47.049Z,98458.30
2018-02-06T12:07:15.336Z,98456.91
2018-02-06T12:09:43.703Z,98451.63
2018-02-06T12:12:11.989Z,98444.05
2018-02-06T12:14:40.648Z,98444.90
2018-02-06T12:17:10.525Z,98439.65
2018-02-06T12:19:38.878Z,98432.20
2018-02-06T12:22:07.148Z,98428.19
2018-02-06T12:24:36.298Z,98432.13
2018-02-06T12:27:05.649Z,98404.23
2018-02-06T12:29:34.036Z,98424.00
2018-02-06T12:32:02.339Z,98429.90
2018-02-06T12:34:30.677Z,98418.95
2018-02-06T12:36:59.034Z,98420.40
2018-02-06T12:39:27.337Z,98420.94
2018-02-06T12:41:55.707Z,98422.83
2018-02-06T12:44:24.100Z,98403.53
2018-02-06T12:46:52.409Z,98408.91
2018-02-06T12:49:20.791Z,98406.03
2018-02-06T12:51:49.544Z,98399.36
2018-02-06T12:54:17.825Z,98395.27
2018-02-06T12:56:46.127Z,98393.77
2018-02-06T12:59:14.570Z,98394.84
2018-02-06T13:01:42.924Z,98392.97
2018-02-06T13:04:11.395Z,98390.85
2018-02-06T13:06:39.749Z,98391.95
2018-02-06T13:09:08.931Z,98393.42
2018-02-06T13:11:37.205Z,98384.65
2018-02-06T13:14:05.587Z,98384.66
2018-02-06T13:16:33.918Z,98376.91
2018-02-06T13:19:02.219Z,98374.47
2018-02-06T13:21:30.499Z,98373.88
2018-02-06T13:23:58.822Z,98378.73
2018-02-06T13:26:27.126Z,98379.57
2018-02-06T13:28:55.737Z,98373.83
2018-02-06T13:31:24.030Z,98367.89
2018-02-06T13:33:52.373Z,98365.37
2018-02-06T13:36:20.752Z,98364.41
2018-02-06T13:38:49.028Z,98364.91
2018-02-06T13:41:17.413Z,98365.02
2018-02-06T13:43:45.689Z,98362.58
2018-02-06T13:46:14.161Z,98361.38
2018-02-06T13:48:42.557Z,98355.27
2018-02-06T13:51:10.848Z,98358.29
2018-02-06T13:53:39.173Z,98360.63
2018-02-06T13:56:07.473Z,98357.84
2018-02-06T13:58:35.864Z,98351.28
2018-02-06T14:01:04.643Z,98334.92
2018-02-06T14:03:33.850Z,98340.12
2018-02-06T14:06:02.449Z,98341.77
2018-02-06T14:08:30.778Z,98349.63
2018-02-06T14:10:59.075Z,98349.07
2018-02-06T14:13:27.430Z,98342.69
2018-02-06T14:15:55.794Z,98329.48
2018-02-06T14:18:24.109Z,98343.89
2018-02-06T14:20:52.955Z,98342.30
2018-02-06T14:23:21.691Z,98343.33
2018-02-06T14:25:51.272Z,98333.55
2018-02-06T14:28:19.571Z,98331.95
2018-02-06T14:30:47.935Z,98330.99
2018-02-06T14:33:16.211Z,98332.49
2018-02-06T14:35:44.562Z,98321.48
2018-02-06T14:38:20.359Z,98331.80
2018-02-06T14:40:49.316Z,98333.77
2018-02-06T14:43:17.625Z,98327.62
2018-02-06T14:45:45.936Z,98330.84
2018-02-06T14:48:14.200Z,98326.73
2018-02-06T14:50:42.511Z,98324.88
2018-02-06T14:53:10.804Z,98320.89
2018-02-06T14:55:39.111Z,98315.03
2018-02-06T14:58:07.472Z,98320.56
2018-02-06T15:00:36.493Z,98290.55
2018-02-06T15:03:05.350Z,98339.95
2018-02-06T15:05:33.622Z,98313.48
2018-02-06T15:08:02.013Z,98311.67
2018-02-06T15:10:30.273Z,98310.38
2018-02-06T15:12:58.767Z,98307.76
2018-02-06T15:15:27.145Z,98311.16
2018-02-06T15:17:55.536Z,98312.17
2018-02-06T15:20:23.920Z,98315.09
2018-02-06T15:22:52.248Z,98294.80
2018-02-06T15:25:20.579Z,98324.59
2018-02-06T15:27:48.907Z,98320.89
2018-02-06T15:30:17.236Z,98326.08
2018-02-06T15:32:45.609Z,98324.30
2018-02-06T15:35:13.963Z,98320.82
2018-02-06T15:37:42.295Z,98328.11
2018-02-06T15:40:10.641Z,98327.13
2018-02-06T15:42:38.913Z,98317.30
2018-02-06T15:45:07.986Z,98332.39
2018-02-06T15:47:36.327Z,98311.20
2018-02-06T15:50:04.946Z,98337.63
2018-02-06T15:52:33.228Z,98336.94
2018-02-06T15:55:01.503Z,98340.37
2018-02-06T15:57:30.804Z,98336.67
2018-02-06T15:59:59.110Z,98329.98
2018-02-06T16:02:27.433Z,98338.41
2018-02-06T16:04:55.744Z,98325.80
2018-02-06T16:07:24.105Z,98327.39
2018-02-06T16:09:52.455Z,98332.03
2018-02-06T16:12:20.798Z,98331.33
2018-02-06T16:14:49.115Z,98336.38
2018-02-06T16:17:17.418Z,98335.98
2018-02-06T16:19:45.724Z,98335.22
2018-02-06T16:22:14.000Z,98332.30
2018-02-06T16:24:42.321Z,98332.77
2018-02-06T16:27:10.616Z,98323.81
2018-02-06T16:29:39.112Z,98341.02
2018-02-06T16:32:07.396Z,98347.21
2018-02-06T16:34:35.738Z,98342.16
2018-02-06T16:37:04.953Z,98339.92
2018-02-06T16:39:33.273Z,98341.14
2018-02-06T16:42:01.551Z,98337.69
2018-02-06T16:44:29.887Z,98334.31
2018-02-06T16:46:58.246Z,98334.52
2018-02-06T16:49:26.507Z,98328.41
2018-02-06T16:51:54.844Z,98319.73
2018-02-06T16:54:23.244Z,98315.73
2018-02-06T16:56:51.557Z,98330.35
2018-02-06T16:59:19.861Z,98327.24
2018-02-06T17:01:51.850Z,98331.73
2018-02-06T17:04:20.603Z,98323.82
2018-02-06T17:06:48.952Z,98333.09
2018-02-06T17:09:17.259Z,98333.99
2018-02-06T17:11:45.684Z,98341.74
2018-02-06T17:14:14.060Z,98347.81
2018-02-06T17:16:42.382Z,98351.84
2018-02-06T17:19:10.679Z,98351.09
2018-02-06T17:21:38.972Z,98354.77
2018-02-06T17:24:07.284Z,98349.74
2018-02-06T17:26:35.629Z,98330.58
2018-02-06T17:29:03.982Z,98330.94
2018-02-06T17:31:32.255Z,98330.42
2018-02-06T17:34:00.533Z,98328.77
2018-02-06T17:36:28.836Z,98318.86
2018-02-06T17:38:57.146Z,98337.81
2018-02-06T17:41:26.217Z,98335.70
2018-02-06T17:43:54.556Z,98333.09
2018-02-06T17:46:22.881Z,98333.66
2018-02-06T17:48:51.154Z,98341.70
2018-02-06T17:51:19.426Z,98318.11
2018-02-06T17:53:47.727Z,98338.61
2018-02-06T17:56:16.013Z,98347.52
2018-02-06T17:58:44.303Z,98350.94
2018-02-06T18:01:12.597Z,98348.16
2018-02-06T18:03:40.956Z,98342.33
2018-02-06T18:06:09.249Z,98339.52
2018-02-06T18:08:37.530Z,98347.11
2018-02-06T18:11:05.898Z,98342.62
2018-02-06T18:13:34.186Z,98330.41
2018-02-06T18:16:02.483Z,98352.55
2018-02-06T18:18:30.758Z,98348.27
2018-02-06T18:20:59.051Z,98346.27
2018-02-06T18:23:27.328Z,98345.81
2018-02-06T18:25:55.624Z,98342.92
2018-02-06T18:28:23.933Z,98329.22
2018-02-06T18:30:52.221Z,98340.56
2018-02-06T18:33:20.814Z,98304.37
2018-02-06T18:35:49.104Z,98337.46
2018-02-06T18:38:17.417Z,98338.79
2018-02-06T18:40:45.703Z,98341.05
2018-02-06T18:43:14.041Z,98338.48
2018-02-06T18:45:42.310Z,98345.26
2018-02-06T18:48:10.682Z,98351.17
2018-02-06T18:50:39.362Z,98340.92
2018-02-06T18:53:07.622Z,98347.61
2018-02-06T18:55:35.942Z,98335.67
2018-02-06T18:58:04.794Z,98347.23
2018-02-06T19:00:33.096Z,98344.70
2018-02-06T19:03:01.374Z,98346.56
2018-02-06T19:05:29.687Z,98345.39
2018-02-06T19:07:59.054Z,98341.16
2018-02-06T19:10:27.386Z,98344.04
2018-02-06T19:12:55.701Z,98322.14
2018-02-06T19:15:23.987Z,98331.49
2018-02-06T19:17:52.314Z,98332.82
2018-02-06T19:20:20.601Z,98328.14
2018-02-06T19:22:48.943Z,98334.80
2018-02-06T19:25:17.235Z,98329.26
2018-02-06T19:27:46.368Z,98331.52
2018-02-06T19:30:14.655Z,98327.06
2018-02-06T19:32:42.988Z,98322.75
2018-02-06T19:35:11.345Z,98327.06
2018-02-06T19:37:39.636Z,98324.63
2018-02-06T19:40:07.986Z,98333.67
2018-02-06T19:42:36.300Z,98337.12
2018-02-06T19:45:04.809Z,98337.66
2018-02-06T19:47:33.039Z,98337.73
2018-02-06T19:50:01.393Z,98339.08
2018-02-06T19:52:29.674Z,98347.87
2018-02-06T19:54:57.972Z,98335.64
2018-02-06T19:57:26.693Z,98343.75
2018-02-06T19:59:55.167Z,98339.25
2018-02-06T20:02:23.452Z,98342.62
2018-02-06T20:04:51.786Z,98342.20
2018-02-06T20:07:21.116Z,98337.37
2018-02-06T20:09:49.495Z,98342.38
2018-02-06T20:12:17.888Z,98321.52
2018-02-06T20:14:46.275Z,98340.00
2018-02-06T20:17:14.584Z,98343.74
2018-02-06T20:19:42.953Z,98344.27
2018-02-06T20:22:11.297Z,98342.77
2018-02-06T20:24:39.608Z,98350.11
2018-02-06T20:27:07.895Z,98345.39
2018-02-06T20:29:36.167Z,98348.51
2018-02-06T20:32:04.596Z,98322.59
2018-02-06T20:34:33.386Z,98346.77
2018-02-06T20:37:01.731Z,98331.39
2018-02-06T20:39:30.020Z,98344.55
2018-02-06T20:41:58.424Z,98330.02
2018-02-06T20:44:26.724Z,98347.66
2018-02-06T20:46:54.999Z,98349.57
2018-02-06T20:49:23.324Z,98345.96
2018-02-06T20:51:51.622Z,98349.30
2018-02-06T20:54:20.901Z,98335.36
2018-02-06T20:56:49.108Z,98341.55
2018-02-06T20:59:17.454Z,98350.21
2018-02-06T21:01:45.728Z,98327.08
2018-02-06T21:04:14.042Z,98355.48
2018-02-06T21:06:42.352Z,98351.41
2018-02-06T21:09:10.699Z,98356.39
2018-02-06T21:11:38.999Z,98351.10
2018-02-06T21:14:08.133Z,98351.12
2018-02-06T21:16:36.450Z,98354.97
2018-02-06T21:19:04.740Z,98323.11
2018-02-06T21:21:33.067Z,98346.31
2018-02-06T21:24:01.365Z,98342.88
2018-02-06T21:26:29.687Z,98345.48
2018-02-06T21:28:57.963Z,98349.27
2018-02-06T21:31:26.325Z,98352.59
2018-02-06T21:33:54.547Z,98355.37
2018-02-06T21:36:22.917Z,98345.81
2018-02-06T21:38:51.199Z,98346.39
2018-02-06T21:41:19.516Z,98348.73
2018-02-06T21:43:47.834Z,98352.20
2018-02-06T21:46:16.197Z,98356.70
2018-02-06T21:48:44.495Z,98338.10
2018-02-06T21:51:12.747Z,98355.57
2018-02-06T21:53:41.063Z,98351.13
2018-02-06T21:56:09.391Z,98356.44
2018-02-06T21:58:37.890Z,98365.30
2018-02-06T22:01:06.215Z,98365.03
2018-02-06T22:03:34.476Z,98362.59
2018-02-06T22:06:02.782Z,98366.87
2018-02-06T22:08:31.119Z,98373.91
2018-02-06T22:10:59.397Z,98372.84
2018-02-06T22:13:27.666Z,98377.22
2018-02-06T22:15:56.005Z,98371.37
2018-02-06T22:18:24.332Z,98376.56
2018-02-06T22:20:52.653Z,98381.39
2018-02-06T22:23:20.929Z,98379.61
2018-02-06T22:25:49.254Z,98388.49
2018-02-06T22:28:17.516Z,98384.96
2018-02-06T22:30:45.840Z,98389.89
2018-02-06T22:33:14.362Z,98389.44
2018-02-06T22:35:42.691Z,98389.59
2018-02-06T22:38:10.997Z,98391.59
2018-02-06T22:40:39.387Z,98385.45
2018-02-06T22:43:07.711Z,98365.75
2018-02-06T22:45:36.041Z,98382.52
2018-02-06T22:48:04.390Z,98384.22
2018-02-06T22:50:32.693Z,98383.34
2018-02-06T22:53:01.041Z,98380.22
2018-02-06T22:55:29.397Z,98379.31
2018-02-06T22:57:57.729Z,98380.81
2018-02-06T23:00:26.028Z,98376.97
2018-02-06T23:02:54.342Z,98375.25
2018-02-06T23:05:22.637Z,98372.81
2018-02-06T23:07:50.959Z,98381.63
2018-02-06T23:10:19.256Z,98382.77
2018-02-06T23:12:47.572Z,98383.93
2018-02-06T23:15:15.862Z,98383.67
2018-02-06T23:17:44.163Z,98386.05
2018-02-06T23:20:12.470Z,98388.56
2018-02-06T23:22:40.819Z,98386.96
2018-02-06T23:25:09.145Z,98388.66
2018-02-06T23:27:37.400Z,98384.16
2018-02-06T23:30:05.746Z,98389.94
2018-02-06T23:32:34.076Z,98388.40
2018-02-06T23:35:02.384Z,98391.34
2018-02-06T23:37:30.679Z,98391.47
2018-02-06T23:39:58.958Z,98387.39
2018-02-06T23:42:27.282Z,98391.47
2018-02-06T23:44:55.551Z,98392.60
2018-02-06T23:47:23.881Z,98396.11
2018-02-06T23:49:52.170Z,98395.70
2018-02-06T23:52:20.495Z,98400.10
2018-02-06T23:54:48.784Z,98382.52
2018-02-06T23:57:17.092Z,98401.73
2018-02-06T23:59:45.396Z,98407.69
